sensor_id;sensor_type;location;lat;lon;timestamp;temperature;humidity
38938;DHT22;24727;51.974;20.868;2023-05-01T00:02:10;5.10;1.00
38938;DHT22;24727;51.974;20.868;2023-05-01T00:04:37;5.00;1.00
38938;DHT22;24727;51.974;20.868;2023-05-01T00:07:04;4.80;1.00
38938;DHT22;24727;51.974;20.868;2023-05-01T00:09:29;4.70;1.00
38938;DHT22;24727;51.974;20.868;2023-05-01T00:11:57;4.60;1.00
38938;DHT22;24727;51.974;20.868;2023-05-01T00:14:23;4.60;1.00
38938;DHT22;24727;51.974;20.868;2023-05-01T00:16:50;4.60;1.00
38938;DHT22;24727;51.974;20.868;2023-05-01T00:19:16;4.40;1.00
38938;DHT22;24727;51.974;20.868;2023-05-01T00:21:46;4.30;1.00
38938;DHT22;24727;51.974;20.868;2023-05-01T00:24:14;4.30;1.00
38938;DHT22;24727;51.974;20.868;2023-05-01T00:26:41;4.20;1.00
38938;DHT22;24727;51.974;20.868;2023-05-01T00:29:07;4.30;1.00
38938;DHT22;24727;51.974;20.868;2023-05-01T00:31:33;4.30;1.00
38938;DHT22;24727;51.974;20.868;2023-05-01T00:33:59;4.30;1.00
38938;DHT22;24727;51.974;20.868;2023-05-01T00:36:25;4.30;1.00
38938;DHT22;24727;51.974;20.868;2023-05-01T00:38:51;4.40;1.00
38938;DHT22;24727;51.974;20.868;2023-05-01T00:41:19;4.50;1.00
38938;DHT22;24727;51.974;20.868;2023-05-01T00:43:46;4.50;1.00
38938;DHT22;24727;51.974;20.868;2023-05-01T00:46:12;4.60;1.00
38938;DHT22;24727;51.974;20.868;2023-05-01T00:48:40;4.50;1.00
38938;DHT22;24727;51.974;20.868;2023-05-01T00:51:06;4.50;1.00
38938;DHT22;24727;51.974;20.868;2023-05-01T00:53:33;4.40;1.00
38938;DHT22;24727;51.974;20.868;2023-05-01T00:56:00;4.20;1.00
38938;DHT22;24727;51.974;20.868;2023-05-01T00:58:28;4.10;1.00
38938;DHT22;24727;51.974;20.868;2023-05-01T01:00:55;4.10;1.00
38938;DHT22;24727;51.974;20.868;2023-05-01T01:03:21;4.20;1.00
38938;DHT22;24727;51.974;20.868;2023-05-01T01:08:42;4.40;1.00
38938;DHT22;24727;51.974;20.868;2023-05-01T01:11:22;4.40;1.00
38938;DHT22;24727;51.974;20.868;2023-05-01T01:14:10;4.30;1.00
38938;DHT22;24727;51.974;20.868;2023-05-01T01:22:07;4.30;1.00
38938;DHT22;24727;51.974;20.868;2023-05-01T01:35:15;3.90;1.00
38938;DHT22;24727;51.974;20.868;2023-05-01T01:38:08;3.90;1.00
38938;DHT22;24727;51.974;20.868;2023-05-01T01:41:06;3.90;1.00
38938;DHT22;24727;51.974;20.868;2023-05-01T01:43:38;3.80;1.00
38938;DHT22;24727;51.974;20.868;2023-05-01T01:46:07;3.80;1.00
38938;DHT22;24727;51.974;20.868;2023-05-01T01:48:41;3.70;1.00
38938;DHT22;24727;51.974;20.868;2023-05-01T01:51:13;3.70;1.00
38938;DHT22;24727;51.974;20.868;2023-05-01T01:53:45;3.60;1.00
38938;DHT22;24727;51.974;20.868;2023-05-01T01:56:14;3.60;1.00
38938;DHT22;24727;51.974;20.868;2023-05-01T01:58:43;3.60;1.00
38938;DHT22;24727;51.974;20.868;2023-05-01T02:01:13;3.70;1.00
38938;DHT22;24727;51.974;20.868;2023-05-01T02:03:39;3.70;1.00
38938;DHT22;24727;51.974;20.868;2023-05-01T02:06:06;3.50;1.00
38938;DHT22;24727;51.974;20.868;2023-05-01T02:08:34;3.00;1.00
38938;DHT22;24727;51.974;20.868;2023-05-01T02:11:04;2.80;1.00
38938;DHT22;24727;51.974;20.868;2023-05-01T02:13:40;2.90;1.00
38938;DHT22;24727;51.974;20.868;2023-05-01T02:16:07;3.00;1.00
38938;DHT22;24727;51.974;20.868;2023-05-01T02:18:42;3.10;1.00
38938;DHT22;24727;51.974;20.868;2023-05-01T02:21:10;3.10;1.00
38938;DHT22;24727;51.974;20.868;2023-05-01T02:23:38;3.00;1.00
38938;DHT22;24727;51.974;20.868;2023-05-01T02:26:05;3.00;1.00
38938;DHT22;24727;51.974;20.868;2023-05-01T02:28:35;3.00;1.00
38938;DHT22;24727;51.974;20.868;2023-05-01T02:31:06;3.00;1.00
38938;DHT22;24727;51.974;20.868;2023-05-01T02:33:31;2.90;1.00
38938;DHT22;24727;51.974;20.868;2023-05-01T02:35:57;2.90;1.00
38938;DHT22;24727;51.974;20.868;2023-05-01T02:38:23;2.90;1.00
38938;DHT22;24727;51.974;20.868;2023-05-01T02:40:56;2.90;1.00
38938;DHT22;24727;51.974;20.868;2023-05-01T02:43:22;3.00;1.00
38938;DHT22;24727;51.974;20.868;2023-05-01T02:45:50;2.90;1.00
38938;DHT22;24727;51.974;20.868;2023-05-01T02:48:22;2.80;1.00
38938;DHT22;24727;51.974;20.868;2023-05-01T02:50:51;2.80;1.00
38938;DHT22;24727;51.974;20.868;2023-05-01T02:53:19;2.80;1.00
38938;DHT22;24727;51.974;20.868;2023-05-01T02:55:48;2.70;1.00
38938;DHT22;24727;51.974;20.868;2023-05-01T02:58:16;2.70;1.00
38938;DHT22;24727;51.974;20.868;2023-05-01T03:00:42;2.70;1.00
38938;DHT22;24727;51.974;20.868;2023-05-01T03:03:10;2.70;1.00
38938;DHT22;24727;51.974;20.868;2023-05-01T03:05:37;2.70;1.00
38938;DHT22;24727;51.974;20.868;2023-05-01T03:08:04;2.70;1.00
38938;DHT22;24727;51.974;20.868;2023-05-01T03:10:31;2.80;1.00
38938;DHT22;24727;51.974;20.868;2023-05-01T03:12:57;2.70;1.00
38938;DHT22;24727;51.974;20.868;2023-05-01T03:15:26;2.70;1.00
38938;DHT22;24727;51.974;20.868;2023-05-01T03:17:52;2.60;1.00
38938;DHT22;24727;51.974;20.868;2023-05-01T03:20:19;2.50;1.00
38938;DHT22;24727;51.974;20.868;2023-05-01T03:22:45;2.60;1.00
38938;DHT22;24727;51.974;20.868;2023-05-01T03:25:12;2.60;1.00
38938;DHT22;24727;51.974;20.868;2023-05-01T03:27:40;2.60;1.00
38938;DHT22;24727;51.974;20.868;2023-05-01T03:30:06;2.60;1.00
38938;DHT22;24727;51.974;20.868;2023-05-01T03:32:36;2.60;1.00
38938;DHT22;24727;51.974;20.868;2023-05-01T03:35:01;2.60;1.00
38938;DHT22;24727;51.974;20.868;2023-05-01T03:37:28;2.60;1.00
38938;DHT22;24727;51.974;20.868;2023-05-01T03:39:54;2.60;1.00
38938;DHT22;24727;51.974;20.868;2023-05-01T03:42:20;2.70;1.00
38938;DHT22;24727;51.974;20.868;2023-05-01T03:44:46;2.80;1.00
38938;DHT22;24727;51.974;20.868;2023-05-01T03:47:12;2.80;1.00
38938;DHT22;24727;51.974;20.868;2023-05-01T03:49:38;2.80;1.00
38938;DHT22;24727;51.974;20.868;2023-05-01T03:52:04;2.90;1.00
38938;DHT22;24727;51.974;20.868;2023-05-01T03:54:31;2.90;1.00
38938;DHT22;24727;51.974;20.868;2023-05-01T03:56:57;3.00;1.00
38938;DHT22;24727;51.974;20.868;2023-05-01T03:59:23;3.00;1.00
38938;DHT22;24727;51.974;20.868;2023-05-01T04:01:49;3.00;1.00
38938;DHT22;24727;51.974;20.868;2023-05-01T04:04:16;3.10;1.00
38938;DHT22;24727;51.974;20.868;2023-05-01T04:06:43;3.20;1.00
38938;DHT22;24727;51.974;20.868;2023-05-01T04:09:15;3.20;1.00
38938;DHT22;24727;51.974;20.868;2023-05-01T04:11:41;3.30;1.00
38938;DHT22;24727;51.974;20.868;2023-05-01T04:14:07;3.40;1.00
38938;DHT22;24727;51.974;20.868;2023-05-01T04:16:35;3.50;1.00
38938;DHT22;24727;51.974;20.868;2023-05-01T04:19:02;3.60;1.00
38938;DHT22;24727;51.974;20.868;2023-05-01T04:21:35;3.70;1.00
38938;DHT22;24727;51.974;20.868;2023-05-01T04:24:01;3.90;1.00
38938;DHT22;24727;51.974;20.868;2023-05-01T04:26:29;4.00;1.00
38938;DHT22;24727;51.974;20.868;2023-05-01T04:29:03;4.10;1.00
38938;DHT22;24727;51.974;20.868;2023-05-01T04:31:30;4.20;1.00
38938;DHT22;24727;51.974;20.868;2023-05-01T04:33:56;4.40;1.00
38938;DHT22;24727;51.974;20.868;2023-05-01T04:36:24;4.50;1.00
38938;DHT22;24727;51.974;20.868;2023-05-01T04:38:52;4.60;1.00
38938;DHT22;24727;51.974;20.868;2023-05-01T04:41:18;4.80;1.00
38938;DHT22;24727;51.974;20.868;2023-05-01T04:43:44;5.00;1.00
38938;DHT22;24727;51.974;20.868;2023-05-01T04:46:10;5.10;1.00
38938;DHT22;24727;51.974;20.868;2023-05-01T04:48:36;5.20;1.00
38938;DHT22;24727;51.974;20.868;2023-05-01T04:51:03;5.30;1.00
38938;DHT22;24727;51.974;20.868;2023-05-01T04:53:29;5.40;1.00
38938;DHT22;24727;51.974;20.868;2023-05-01T04:55:55;5.60;1.00
38938;DHT22;24727;51.974;20.868;2023-05-01T04:58:21;5.70;1.00
38938;DHT22;24727;51.974;20.868;2023-05-01T05:00:47;5.90;1.00
38938;DHT22;24727;51.974;20.868;2023-05-01T05:03:14;6.10;1.00
38938;DHT22;24727;51.974;20.868;2023-05-01T05:05:43;6.30;1.00
38938;DHT22;24727;51.974;20.868;2023-05-01T05:08:11;6.40;1.00
38938;DHT22;24727;51.974;20.868;2023-05-01T05:10:37;6.50;1.00
38938;DHT22;24727;51.974;20.868;2023-05-01T05:13:03;6.70;1.00
38938;DHT22;24727;51.974;20.868;2023-05-01T05:15:29;6.80;1.00
38938;DHT22;24727;51.974;20.868;2023-05-01T05:17:56;7.00;1.00
38938;DHT22;24727;51.974;20.868;2023-05-01T05:20:22;7.30;1.00
38938;DHT22;24727;51.974;20.868;2023-05-01T05:22:48;7.40;1.00
38938;DHT22;24727;51.974;20.868;2023-05-01T05:25:16;7.60;1.00
38938;DHT22;24727;51.974;20.868;2023-05-01T05:27:41;7.80;1.00
38938;DHT22;24727;51.974;20.868;2023-05-01T05:30:08;7.80;1.00
38938;DHT22;24727;51.974;20.868;2023-05-01T05:32:34;8.00;1.00
38938;DHT22;24727;51.974;20.868;2023-05-01T05:35:03;8.10;1.00
38938;DHT22;24727;51.974;20.868;2023-05-01T05:37:31;8.20;1.00
38938;DHT22;24727;51.974;20.868;2023-05-01T05:39:57;8.30;1.00
38938;DHT22;24727;51.974;20.868;2023-05-01T05:42:23;8.50;1.00
38938;DHT22;24727;51.974;20.868;2023-05-01T05:44:50;8.70;1.00
38938;DHT22;24727;51.974;20.868;2023-05-01T05:47:18;9.00;1.00
38938;DHT22;24727;51.974;20.868;2023-05-01T05:49:44;9.00;1.00
38938;DHT22;24727;51.974;20.868;2023-05-01T05:52:10;9.20;1.00
38938;DHT22;24727;51.974;20.868;2023-05-01T05:54:37;9.40;1.00
38938;DHT22;24727;51.974;20.868;2023-05-01T05:57:03;9.70;1.00
38938;DHT22;24727;51.974;20.868;2023-05-01T05:59:30;9.90;1.00
38938;DHT22;24727;51.974;20.868;2023-05-01T06:01:57;10.00;1.00
38938;DHT22;24727;51.974;20.868;2023-05-01T06:04:24;10.40;1.00
38938;DHT22;24727;51.974;20.868;2023-05-01T06:06:50;10.40;1.00
38938;DHT22;24727;51.974;20.868;2023-05-01T06:09:17;10.60;1.00
38938;DHT22;24727;51.974;20.868;2023-05-01T06:11:51;10.80;1.00
38938;DHT22;24727;51.974;20.868;2023-05-01T06:14:17;11.00;1.00
38938;DHT22;24727;51.974;20.868;2023-05-01T06:16:43;11.00;1.00
38938;DHT22;24727;51.974;20.868;2023-05-01T06:19:10;10.90;1.00
38938;DHT22;24727;51.974;20.868;2023-05-01T06:21:37;10.90;1.00
38938;DHT22;24727;51.974;20.868;2023-05-01T06:24:04;10.90;1.00
38938;DHT22;24727;51.974;20.868;2023-05-01T06:26:31;11.20;1.00
38938;DHT22;24727;51.974;20.868;2023-05-01T06:28:57;11.40;1.00
38938;DHT22;24727;51.974;20.868;2023-05-01T06:31:23;11.60;1.00
38938;DHT22;24727;51.974;20.868;2023-05-01T06:33:49;11.50;1.00
38938;DHT22;24727;51.974;20.868;2023-05-01T06:36:15;11.90;1.00
38938;DHT22;24727;51.974;20.868;2023-05-01T06:38:41;12.00;1.00
38938;DHT22;24727;51.974;20.868;2023-05-01T06:41:14;12.00;1.00
38938;DHT22;24727;51.974;20.868;2023-05-01T06:43:41;12.50;1.00
38938;DHT22;24727;51.974;20.868;2023-05-01T06:46:07;12.90;1.00
38938;DHT22;24727;51.974;20.868;2023-05-01T06:48:33;13.10;1.00
38938;DHT22;24727;51.974;20.868;2023-05-01T06:50:59;13.50;1.00
38938;DHT22;24727;51.974;20.868;2023-05-01T06:53:25;13.40;1.00
38938;DHT22;24727;51.974;20.868;2023-05-01T06:55:51;13.80;1.00
38938;DHT22;24727;51.974;20.868;2023-05-01T06:58:17;13.70;1.00
38938;DHT22;24727;51.974;20.868;2023-05-01T07:00:44;13.60;1.00
38938;DHT22;24727;51.974;20.868;2023-05-01T07:03:12;13.20;1.00
38938;DHT22;24727;51.974;20.868;2023-05-01T07:05:38;13.50;1.00
38938;DHT22;24727;51.974;20.868;2023-05-01T07:08:06;13.90;1.00
38938;DHT22;24727;51.974;20.868;2023-05-01T07:10:34;14.20;1.00
38938;DHT22;24727;51.974;20.868;2023-05-01T07:13:00;14.70;1.00
38938;DHT22;24727;51.974;20.868;2023-05-01T07:15:26;14.60;1.00
38938;DHT22;24727;51.974;20.868;2023-05-01T07:17:52;14.30;1.00
38938;DHT22;24727;51.974;20.868;2023-05-01T07:20:18;14.00;1.00
38938;DHT22;24727;51.974;20.868;2023-05-01T07:22:44;14.30;1.00
38938;DHT22;24727;51.974;20.868;2023-05-01T07:25:11;14.90;1.00
38938;DHT22;24727;51.974;20.868;2023-05-01T07:27:39;15.50;1.00
38938;DHT22;24727;51.974;20.868;2023-05-01T07:30:06;15.70;1.00
38938;DHT22;24727;51.974;20.868;2023-05-01T07:32:33;15.10;1.00
38938;DHT22;24727;51.974;20.868;2023-05-01T07:34:59;15.40;1.00
38938;DHT22;24727;51.974;20.868;2023-05-01T07:37:27;15.80;1.00
38938;DHT22;24727;51.974;20.868;2023-05-01T07:39:55;15.60;1.00
38938;DHT22;24727;51.974;20.868;2023-05-01T07:42:26;15.40;1.00
38938;DHT22;24727;51.974;20.868;2023-05-01T07:44:52;16.00;1.00
38938;DHT22;24727;51.974;20.868;2023-05-01T07:47:20;16.60;1.00
38938;DHT22;24727;51.974;20.868;2023-05-01T07:49:46;16.60;1.00
38938;DHT22;24727;51.974;20.868;2023-05-01T07:52:12;17.10;1.00
38938;DHT22;24727;51.974;20.868;2023-05-01T07:54:41;17.00;1.00
38938;DHT22;24727;51.974;20.868;2023-05-01T07:57:06;16.50;1.00
38938;DHT22;24727;51.974;20.868;2023-05-01T07:59:33;16.40;1.00
38938;DHT22;24727;51.974;20.868;2023-05-01T08:01:59;16.60;1.00
38938;DHT22;24727;51.974;20.868;2023-05-01T08:04:26;17.20;1.00
38938;DHT22;24727;51.974;20.868;2023-05-01T08:06:52;17.50;1.00
38938;DHT22;24727;51.974;20.868;2023-05-01T08:09:19;17.60;1.00
38938;DHT22;24727;51.974;20.868;2023-05-01T08:11:46;16.90;1.00
38938;DHT22;24727;51.974;20.868;2023-05-01T08:14:12;17.60;1.00
38938;DHT22;24727;51.974;20.868;2023-05-01T08:16:38;18.30;1.00
38938;DHT22;24727;51.974;20.868;2023-05-01T08:19:04;17.70;1.00
38938;DHT22;24727;51.974;20.868;2023-05-01T08:21:30;18.40;1.00
38938;DHT22;24727;51.974;20.868;2023-05-01T08:23:56;18.50;1.00
38938;DHT22;24727;51.974;20.868;2023-05-01T08:26:22;18.60;1.00
38938;DHT22;24727;51.974;20.868;2023-05-01T08:28:49;17.30;1.00
38938;DHT22;24727;51.974;20.868;2023-05-01T08:31:16;17.30;1.00
38938;DHT22;24727;51.974;20.868;2023-05-01T08:33:46;18.30;1.00
38938;DHT22;24727;51.974;20.868;2023-05-01T08:36:11;17.80;1.00
38938;DHT22;24727;51.974;20.868;2023-05-01T08:38:38;18.80;1.00
38938;DHT22;24727;51.974;20.868;2023-05-01T08:41:05;19.50;1.00
38938;DHT22;24727;51.974;20.868;2023-05-01T08:43:31;19.60;1.00
38938;DHT22;24727;51.974;20.868;2023-05-01T08:45:58;19.70;1.00
38938;DHT22;24727;51.974;20.868;2023-05-01T08:48:28;19.10;1.00
38938;DHT22;24727;51.974;20.868;2023-05-01T08:50:56;19.70;1.00
38938;DHT22;24727;51.974;20.868;2023-05-01T08:53:25;19.00;1.00
38938;DHT22;24727;51.974;20.868;2023-05-01T08:55:54;19.10;1.00
38938;DHT22;24727;51.974;20.868;2023-05-01T08:58:24;18.90;1.00
38938;DHT22;24727;51.974;20.868;2023-05-01T09:00:52;18.40;1.00
38938;DHT22;24727;51.974;20.868;2023-05-01T09:03:21;18.50;1.00
38938;DHT22;24727;51.974;20.868;2023-05-01T09:05:48;19.40;1.00
38938;DHT22;24727;51.974;20.868;2023-05-01T09:08:18;18.70;1.00
38938;DHT22;24727;51.974;20.868;2023-05-01T09:10:47;18.20;1.00
38938;DHT22;24727;51.974;20.868;2023-05-01T09:13:14;18.00;1.00
38938;DHT22;24727;51.974;20.868;2023-05-01T09:15:40;17.60;1.00
38938;DHT22;24727;51.974;20.868;2023-05-01T09:18:09;18.40;1.00
38938;DHT22;24727;51.974;20.868;2023-05-01T09:20:36;19.40;1.00
38938;DHT22;24727;51.974;20.868;2023-05-01T09:23:02;19.80;1.00
38938;DHT22;24727;51.974;20.868;2023-05-01T09:25:28;21.30;1.00
38938;DHT22;24727;51.974;20.868;2023-05-01T09:27:56;19.80;1.00
38938;DHT22;24727;51.974;20.868;2023-05-01T09:30:34;20.80;1.00
38938;DHT22;24727;51.974;20.868;2023-05-01T09:35:31;21.40;1.00
38938;DHT22;24727;51.974;20.868;2023-05-01T09:37:58;19.10;1.00
38938;DHT22;24727;51.974;20.868;2023-05-01T09:40:27;19.80;1.00
38938;DHT22;24727;51.974;20.868;2023-05-01T09:42:53;19.30;1.00
38938;DHT22;24727;51.974;20.868;2023-05-01T09:45:23;21.00;1.00
38938;DHT22;24727;51.974;20.868;2023-05-01T09:48:07;21.30;1.00
38938;DHT22;24727;51.974;20.868;2023-05-01T09:50:36;21.50;1.00
38938;DHT22;24727;51.974;20.868;2023-05-01T09:53:04;22.20;1.00
38938;DHT22;24727;51.974;20.868;2023-05-01T09:55:32;21.20;1.00
38938;DHT22;24727;51.974;20.868;2023-05-01T09:57:58;20.90;1.00
38938;DHT22;24727;51.974;20.868;2023-05-01T10:00:25;22.20;1.00
38938;DHT22;24727;51.974;20.868;2023-05-01T10:02:51;23.00;1.00
38938;DHT22;24727;51.974;20.868;2023-05-01T10:05:19;23.60;1.00
38938;DHT22;24727;51.974;20.868;2023-05-01T10:08:03;24.50;1.00
38938;DHT22;24727;51.974;20.868;2023-05-01T10:10:36;25.00;1.00
38938;DHT22;24727;51.974;20.868;2023-05-01T10:13:14;25.10;1.00
38938;DHT22;24727;51.974;20.868;2023-05-01T10:15:41;24.80;1.00
38938;DHT22;24727;51.974;20.868;2023-05-01T10:18:16;24.90;1.00
38938;DHT22;24727;51.974;20.868;2023-05-01T10:20:42;24.30;1.00
38938;DHT22;24727;51.974;20.868;2023-05-01T10:23:09;22.80;1.00
38938;DHT22;24727;51.974;20.868;2023-05-01T10:25:36;22.80;1.00
38938;DHT22;24727;51.974;20.868;2023-05-01T10:28:05;23.70;1.00
38938;DHT22;24727;51.974;20.868;2023-05-01T10:30:37;23.60;1.00
38938;DHT22;24727;51.974;20.868;2023-05-01T10:33:05;24.00;1.00
38938;DHT22;24727;51.974;20.868;2023-05-01T10:35:35;21.70;1.00
38938;DHT22;24727;51.974;20.868;2023-05-01T10:38:10;19.90;1.00
38938;DHT22;24727;51.974;20.868;2023-05-01T10:40:48;19.20;1.00
38938;DHT22;24727;51.974;20.868;2023-05-01T10:43:28;19.40;1.00
38938;DHT22;24727;51.974;20.868;2023-05-01T10:51:22;23.10;1.00
38938;DHT22;24727;51.974;20.868;2023-05-01T10:59:04;24.30;1.00
38938;DHT22;24727;51.974;20.868;2023-05-01T11:01:44;24.90;1.00
38938;DHT22;24727;51.974;20.868;2023-05-01T11:09:53;27.00;1.00
38938;DHT22;24727;51.974;20.868;2023-05-01T11:17:50;27.30;1.00
38938;DHT22;24727;51.974;20.868;2023-05-01T11:22:52;26.50;1.00
38938;DHT22;24727;51.974;20.868;2023-05-01T11:25:30;26.30;1.00
38938;DHT22;24727;51.974;20.868;2023-05-01T11:28:00;26.80;1.00
38938;DHT22;24727;51.974;20.868;2023-05-01T11:30:36;26.90;1.00
38938;DHT22;24727;51.974;20.868;2023-05-01T11:33:03;27.40;1.00
38938;DHT22;24727;51.974;20.868;2023-05-01T11:35:31;27.80;1.00
38938;DHT22;24727;51.974;20.868;2023-05-01T11:37:59;27.90;1.00
38938;DHT22;24727;51.974;20.868;2023-05-01T11:40:26;26.00;1.00
38938;DHT22;24727;51.974;20.868;2023-05-01T11:43:06;25.30;1.00
38938;DHT22;24727;51.974;20.868;2023-05-01T11:45:36;26.10;1.00
38938;DHT22;24727;51.974;20.868;2023-05-01T11:48:02;25.50;1.00
38938;DHT22;24727;51.974;20.868;2023-05-01T11:50:35;24.40;1.00
38938;DHT22;24727;51.974;20.868;2023-05-01T11:53:09;25.10;1.00
38938;DHT22;24727;51.974;20.868;2023-05-01T11:55:36;25.00;1.00
38938;DHT22;24727;51.974;20.868;2023-05-01T11:58:03;25.20;1.00
38938;DHT22;24727;51.974;20.868;2023-05-01T12:00:33;25.50;1.00
38938;DHT22;24727;51.974;20.868;2023-05-01T12:03:03;26.10;1.00
38938;DHT22;24727;51.974;20.868;2023-05-01T12:05:33;26.60;1.00
38938;DHT22;24727;51.974;20.868;2023-05-01T12:10:50;25.70;1.00
38938;DHT22;24727;51.974;20.868;2023-05-01T12:13:33;25.70;1.00
38938;DHT22;24727;51.974;20.868;2023-05-01T12:16:00;26.10;1.00
38938;DHT22;24727;51.974;20.868;2023-05-01T12:18:29;27.00;1.00
38938;DHT22;24727;51.974;20.868;2023-05-01T12:20:55;27.00;1.00
38938;DHT22;24727;51.974;20.868;2023-05-01T12:23:35;26.90;1.00
38938;DHT22;24727;51.974;20.868;2023-05-01T12:29:00;26.50;1.00
38938;DHT22;24727;51.974;20.868;2023-05-01T12:31:27;26.80;1.00
38938;DHT22;24727;51.974;20.868;2023-05-01T12:33:58;26.80;1.00
38938;DHT22;24727;51.974;20.868;2023-05-01T12:36:32;27.20;1.00
38938;DHT22;24727;51.974;20.868;2023-05-01T12:44:26;27.20;1.00
38938;DHT22;24727;51.974;20.868;2023-05-01T12:46:58;27.40;1.00
38938;DHT22;24727;51.974;20.868;2023-05-01T12:49:25;26.70;1.00
38938;DHT22;24727;51.974;20.868;2023-05-01T12:51:56;26.30;1.00
38938;DHT22;24727;51.974;20.868;2023-05-01T12:54:26;24.60;1.00
38938;DHT22;24727;51.974;20.868;2023-05-01T12:56:52;24.10;1.00
38938;DHT22;24727;51.974;20.868;2023-05-01T12:59:24;25.20;1.00
38938;DHT22;24727;51.974;20.868;2023-05-01T13:02:04;26.00;1.00
38938;DHT22;24727;51.974;20.868;2023-05-01T13:04:31;26.00;1.00
38938;DHT22;24727;51.974;20.868;2023-05-01T13:06:58;26.10;1.00
38938;DHT22;24727;51.974;20.868;2023-05-01T13:09:26;26.10;1.00
38938;DHT22;24727;51.974;20.868;2023-05-01T13:12:02;26.50;1.00
38938;DHT22;24727;51.974;20.868;2023-05-01T13:14:40;26.50;1.00
38938;DHT22;24727;51.974;20.868;2023-05-01T13:17:10;25.70;1.00
38938;DHT22;24727;51.974;20.868;2023-05-01T13:19:39;25.80;1.00
38938;DHT22;24727;51.974;20.868;2023-05-01T13:22:05;26.30;1.00
38938;DHT22;24727;51.974;20.868;2023-05-01T13:24:39;26.70;1.00
38938;DHT22;24727;51.974;20.868;2023-05-01T13:27:12;26.90;1.00
38938;DHT22;24727;51.974;20.868;2023-05-01T13:29:39;26.90;1.00
38938;DHT22;24727;51.974;20.868;2023-05-01T13:32:09;25.80;1.00
38938;DHT22;24727;51.974;20.868;2023-05-01T13:34:41;26.50;1.00
38938;DHT22;24727;51.974;20.868;2023-05-01T13:37:10;26.30;1.00
38938;DHT22;24727;51.974;20.868;2023-05-01T13:39:42;26.90;1.00
38938;DHT22;24727;51.974;20.868;2023-05-01T13:42:17;27.40;1.00
38938;DHT22;24727;51.974;20.868;2023-05-01T13:44:51;27.10;1.00
38938;DHT22;24727;51.974;20.868;2023-05-01T13:47:25;26.10;1.00
38938;DHT22;24727;51.974;20.868;2023-05-01T13:49:52;26.10;1.00
38938;DHT22;24727;51.974;20.868;2023-05-01T13:52:19;25.70;1.00
38938;DHT22;24727;51.974;20.868;2023-05-01T13:54:46;25.10;1.00
38938;DHT22;24727;51.974;20.868;2023-05-01T13:57:14;23.90;1.00
38938;DHT22;24727;51.974;20.868;2023-05-01T13:59:44;24.10;1.00
38938;DHT22;24727;51.974;20.868;2023-05-01T14:04:50;23.50;1.00
38938;DHT22;24727;51.974;20.868;2023-05-01T14:07:18;23.90;1.00
38938;DHT22;24727;51.974;20.868;2023-05-01T14:10:00;23.60;1.00
38938;DHT22;24727;51.974;20.868;2023-05-01T14:12:28;23.60;1.00
38938;DHT22;24727;51.974;20.868;2023-05-01T14:14:54;23.50;1.00
38938;DHT22;24727;51.974;20.868;2023-05-01T14:17:32;23.30;1.00
38938;DHT22;24727;51.974;20.868;2023-05-01T14:19:59;22.90;1.00
38938;DHT22;24727;51.974;20.868;2023-05-01T14:22:30;23.30;1.00
38938;DHT22;24727;51.974;20.868;2023-05-01T14:24:59;23.60;1.00
38938;DHT22;24727;51.974;20.868;2023-05-01T14:27:27;23.50;1.00
38938;DHT22;24727;51.974;20.868;2023-05-01T14:29:54;24.00;1.00
38938;DHT22;24727;51.974;20.868;2023-05-01T14:32:21;23.00;1.00
38938;DHT22;24727;51.974;20.868;2023-05-01T14:34:47;22.30;1.00
38938;DHT22;24727;51.974;20.868;2023-05-01T14:37:15;22.20;1.00
38938;DHT22;24727;51.974;20.868;2023-05-01T14:39:42;21.60;1.00
38938;DHT22;24727;51.974;20.868;2023-05-01T14:42:07;22.20;1.00
38938;DHT22;24727;51.974;20.868;2023-05-01T14:44:38;22.40;1.00
38938;DHT22;24727;51.974;20.868;2023-05-01T14:47:08;22.90;1.00
38938;DHT22;24727;51.974;20.868;2023-05-01T14:49:40;23.60;1.00
38938;DHT22;24727;51.974;20.868;2023-05-01T14:52:08;24.10;1.00
38938;DHT22;24727;51.974;20.868;2023-05-01T14:54:44;23.30;1.00
38938;DHT22;24727;51.974;20.868;2023-05-01T14:57:11;23.60;1.00
38938;DHT22;24727;51.974;20.868;2023-05-01T14:59:38;23.60;1.00
38938;DHT22;24727;51.974;20.868;2023-05-01T15:02:03;22.80;1.00
38938;DHT22;24727;51.974;20.868;2023-05-01T15:04:30;21.80;1.00
38938;DHT22;24727;51.974;20.868;2023-05-01T15:06:56;21.70;1.00
38938;DHT22;24727;51.974;20.868;2023-05-01T15:09:22;21.20;1.00
38938;DHT22;24727;51.974;20.868;2023-05-01T15:11:48;21.40;1.00
38938;DHT22;24727;51.974;20.868;2023-05-01T15:14:14;21.30;1.00
38938;DHT22;24727;51.974;20.868;2023-05-01T15:16:42;21.40;1.00
38938;DHT22;24727;51.974;20.868;2023-05-01T15:19:09;21.60;1.00
38938;DHT22;24727;51.974;20.868;2023-05-01T15:21:34;21.50;1.00
38938;DHT22;24727;51.974;20.868;2023-05-01T15:24:01;20.80;1.00
38938;DHT22;24727;51.974;20.868;2023-05-01T15:26:27;19.80;1.00
38938;DHT22;24727;51.974;20.868;2023-05-01T15:28:53;19.60;1.00
38938;DHT22;24727;51.974;20.868;2023-05-01T15:31:19;19.50;1.00
38938;DHT22;24727;51.974;20.868;2023-05-01T15:33:45;19.30;1.00
38938;DHT22;24727;51.974;20.868;2023-05-01T15:36:12;19.50;1.00
38938;DHT22;24727;51.974;20.868;2023-05-01T15:38:38;19.80;1.00
38938;DHT22;24727;51.974;20.868;2023-05-01T15:41:04;19.70;1.00
38938;DHT22;24727;51.974;20.868;2023-05-01T15:43:31;19.20;1.00
38938;DHT22;24727;51.974;20.868;2023-05-01T15:45:58;18.90;1.00
38938;DHT22;24727;51.974;20.868;2023-05-01T15:48:24;18.70;1.00
38938;DHT22;24727;51.974;20.868;2023-05-01T15:50:51;19.10;1.00
38938;DHT22;24727;51.974;20.868;2023-05-01T15:53:17;19.00;1.00
38938;DHT22;24727;51.974;20.868;2023-05-01T15:55:43;19.20;1.00
38938;DHT22;24727;51.974;20.868;2023-05-01T15:58:09;19.00;1.00
38938;DHT22;24727;51.974;20.868;2023-05-01T16:00:35;18.90;1.00
38938;DHT22;24727;51.974;20.868;2023-05-01T16:03:06;18.90;1.00
38938;DHT22;24727;51.974;20.868;2023-05-01T16:05:35;19.00;1.00
38938;DHT22;24727;51.974;20.868;2023-05-01T16:08:05;19.60;1.00
38938;DHT22;24727;51.974;20.868;2023-05-01T16:10:34;19.30;1.00
38938;DHT22;24727;51.974;20.868;2023-05-01T16:13:04;19.00;1.00
38938;DHT22;24727;51.974;20.868;2023-05-01T16:15:35;18.40;1.00
38938;DHT22;24727;51.974;20.868;2023-05-01T16:18:03;18.70;1.00
38938;DHT22;24727;51.974;20.868;2023-05-01T16:20:40;18.70;1.00
38938;DHT22;24727;51.974;20.868;2023-05-01T16:23:06;18.40;1.00
38938;DHT22;24727;51.974;20.868;2023-05-01T16:25:33;18.60;1.00
38938;DHT22;24727;51.974;20.868;2023-05-01T16:28:04;18.70;1.00
38938;DHT22;24727;51.974;20.868;2023-05-01T16:30:30;18.50;1.00
38938;DHT22;24727;51.974;20.868;2023-05-01T16:32:57;18.40;1.00
38938;DHT22;24727;51.974;20.868;2023-05-01T16:35:26;18.70;1.00
38938;DHT22;24727;51.974;20.868;2023-05-01T16:37:53;18.80;1.00
38938;DHT22;24727;51.974;20.868;2023-05-01T16:40:21;18.50;1.00
38938;DHT22;24727;51.974;20.868;2023-05-01T16:42:51;18.20;1.00
38938;DHT22;24727;51.974;20.868;2023-05-01T16:45:19;18.10;1.00